createdAt,value
2023-05-16T00:00:38.113Z,8.45
2023-05-16T00:03:05.499Z,10.52
2023-05-16T00:05:32.212Z,14.48
2023-05-16T00:07:58.825Z,10.75
2023-05-16T00:10:26.754Z,12.75
2023-05-16T00:12:53.783Z,11.05
2023-05-16T00:15:20.620Z,11.32
2023-05-16T00:17:47.388Z,9.73
2023-05-16T00:20:14.358Z,14.32
2023-05-16T00:22:42.082Z,10.85
2023-05-16T00:25:09.696Z,8.85
2023-05-16T00:27:37.098Z,9.90
2023-05-16T00:30:04.649Z,11.73
2023-05-16T00:32:32.065Z,10.15
2023-05-16T00:34:59.242Z,9.88
2023-05-16T00:37:26.017Z,12.20
2023-05-16T00:39:52.789Z,10.82
2023-05-16T00:42:21.109Z,8.52
2023-05-16T00:44:48.491Z,9.75
2023-05-16T00:47:15.572Z,12.52
2023-05-16T00:49:42.706Z,14.00
2023-05-16T00:52:09.916Z,12.18
2023-05-16T00:54:37.139Z,9.45
2023-05-16T00:57:06.908Z,12.55
2023-05-16T00:59:34.186Z,12.13
2023-05-16T01:02:01.365Z,11.63
2023-05-16T01:04:28.640Z,12.48
2023-05-16T01:06:57.235Z,14.43
2023-05-16T01:09:24.448Z,11.60
2023-05-16T01:11:56.159Z,13.82
2023-05-16T01:14:30.518Z,13.10
2023-05-16T01:17:08.534Z,13.82
2023-05-16T01:19:38.099Z,11.07
2023-05-16T01:22:37.886Z,14.95
2023-05-16T01:25:38.755Z,13.15
2023-05-16T01:28:06.482Z,13.38
2023-05-16T01:30:36.351Z,13.77
2023-05-16T01:33:04.115Z,12.18
2023-05-16T01:35:31.622Z,13.15
2023-05-16T01:38:08.814Z,12.73
2023-05-16T01:40:42.053Z,15.73
2023-05-16T01:43:14.477Z,14.77
2023-05-16T01:45:51.311Z,19.98
2023-05-16T01:48:23.733Z,13.40
2023-05-16T01:50:56.622Z,18.20
2023-05-16T01:53:28.646Z,15.85
2023-05-16T01:56:01.946Z,14.85
2023-05-16T01:58:33.151Z,14.95
2023-05-16T02:01:05.930Z,16.17
2023-05-16T02:03:34.087Z,14.93
2023-05-16T02:06:01.426Z,15.73
2023-05-16T02:08:29.086Z,16.75
2023-05-16T02:10:56.050Z,17.08
2023-05-16T02:13:23.171Z,16.45
2023-05-16T02:15:50.324Z,18.60
2023-05-16T02:18:18.910Z,18.65
2023-05-16T02:20:45.928Z,17.20
2023-05-16T02:23:12.866Z,14.40
2023-05-16T02:25:39.769Z,14.00
2023-05-16T02:28:06.993Z,15.73
2023-05-16T02:30:33.971Z,15.43
2023-05-16T02:33:01.494Z,14.75
2023-05-16T02:35:29.839Z,16.40
2023-05-16T02:37:57.328Z,21.73
2023-05-16T02:40:24.072Z,20.40
2023-05-16T02:42:52.580Z,17.98
2023-05-16T02:45:23.642Z,15.20
2023-05-16T02:47:51.135Z,16.73
2023-05-16T02:50:17.981Z,15.82
2023-05-16T02:52:44.857Z,19.58
2023-05-16T02:55:34.926Z,15.32
2023-05-16T02:57:58.735Z,21.08
2023-05-16T03:00:25.574Z,17.00
2023-05-16T03:02:52.756Z,17.60
2023-05-16T03:05:25.545Z,16.45
2023-05-16T03:07:53.589Z,16.67
2023-05-16T03:10:20.513Z,20.05
2023-05-16T03:12:47.323Z,15.98
2023-05-16T03:15:14.251Z,17.48
2023-05-16T03:17:40.927Z,15.30
2023-05-16T03:20:09.232Z,18.40
2023-05-16T03:22:35.966Z,14.90
2023-05-16T03:25:02.770Z,12.77
2023-05-16T03:27:29.538Z,17.27
2023-05-16T03:29:56.258Z,15.05
2023-05-16T03:32:23.942Z,15.05
2023-05-16T03:34:50.520Z,16.90
2023-05-16T03:37:20.979Z,18.05
2023-05-16T03:39:48.178Z,17.35
2023-05-16T03:42:14.898Z,16.80
2023-05-16T03:44:41.655Z,15.45
2023-05-16T03:47:08.284Z,15.85
2023-05-16T03:49:37.029Z,17.80
2023-05-16T03:52:06.289Z,17.88
2023-05-16T03:54:33.263Z,17.80
2023-05-16T03:57:00.608Z,17.40
2023-05-16T03:59:27.322Z,15.52
2023-05-16T04:01:54.046Z,13.30
2023-05-16T04:04:21.058Z,15.30
2023-05-16T04:06:47.856Z,15.88
2023-05-16T04:09:14.552Z,16.38
2023-05-16T04:11:41.531Z,17.67
2023-05-16T04:14:08.492Z,17.90
2023-05-16T04:16:35.392Z,16.80
2023-05-16T04:19:02.235Z,16.13
2023-05-16T04:21:29.631Z,11.63
2023-05-16T04:23:57.828Z,14.43
2023-05-16T04:26:25.821Z,16.90
2023-05-16T04:28:53.129Z,18.13
2023-05-16T04:31:20.324Z,28.45
2023-05-16T04:33:47.396Z,12.48
2023-05-16T04:36:14.798Z,17.20
2023-05-16T04:38:41.934Z,16.70
2023-05-16T04:41:09.051Z,14.93
2023-05-16T04:43:35.989Z,13.70
2023-05-16T04:46:04.162Z,13.73
2023-05-16T04:48:31.261Z,14.52
2023-05-16T04:50:57.987Z,14.52
2023-05-16T04:53:24.876Z,12.93
2023-05-16T04:55:51.882Z,14.98
2023-05-16T04:58:18.776Z,17.45
2023-05-16T05:00:45.901Z,14.40
2023-05-16T05:03:12.664Z,15.35
2023-05-16T05:05:39.561Z,15.88
2023-05-16T05:08:07.002Z,15.43
2023-05-16T05:10:33.727Z,16.52
2023-05-16T05:13:00.584Z,25.52
2023-05-16T05:15:27.571Z,26.85
2023-05-16T05:17:55.630Z,34.92
2023-05-16T05:20:22.637Z,33.75
2023-05-16T05:22:49.463Z,24.83
2023-05-16T05:25:16.095Z,24.40
2023-05-16T05:27:43.164Z,22.38
2023-05-16T05:30:10.207Z,20.40
2023-05-16T05:32:37.340Z,15.82
2023-05-16T05:35:04.607Z,19.95
2023-05-16T05:37:31.337Z,20.50
2023-05-16T05:39:58.054Z,19.58
2023-05-16T05:42:24.665Z,22.48
2023-05-16T05:44:51.821Z,21.25
2023-05-16T05:47:18.584Z,20.10
2023-05-16T05:49:45.358Z,25.38
2023-05-16T05:52:15.534Z,26.20
2023-05-16T05:54:42.209Z,18.33
2023-05-16T05:57:09.011Z,17.25
2023-05-16T05:59:36.339Z,15.25
2023-05-16T06:02:04.100Z,16.92
2023-05-16T06:04:31.222Z,14.45
2023-05-16T06:06:58.246Z,16.80
2023-05-16T06:09:25.111Z,13.32
2023-05-16T06:11:51.948Z,11.93
2023-05-16T06:14:20.919Z,13.15
2023-05-16T06:16:47.880Z,12.30
2023-05-16T06:19:16.342Z,10.07
2023-05-16T06:21:43.831Z,11.27
2023-05-16T06:24:10.604Z,9.60
2023-05-16T06:26:38.674Z,9.15
2023-05-16T06:29:05.404Z,12.27
2023-05-16T06:31:32.497Z,12.27
2023-05-16T06:33:59.848Z,8.32
2023-05-16T06:36:27.093Z,10.25
2023-05-16T06:38:53.730Z,9.60
2023-05-16T06:41:21.802Z,10.70
2023-05-16T06:43:48.751Z,12.18
2023-05-16T06:46:16.099Z,14.60
2023-05-16T06:48:43.035Z,7.82
2023-05-16T06:51:10.546Z,10.82
2023-05-16T06:53:37.228Z,8.30
2023-05-16T06:56:04.311Z,8.13
2023-05-16T06:58:31.284Z,7.60
2023-05-16T07:00:58.315Z,7.28
2023-05-16T07:03:25.350Z,6.25
2023-05-16T07:05:53.177Z,7.88
2023-05-16T07:08:19.927Z,8.77
2023-05-16T07:10:46.763Z,7.10
2023-05-16T07:13:13.714Z,8.23
2023-05-16T07:15:40.816Z,6.97
2023-05-16T07:18:07.939Z,8.10
2023-05-16T07:20:34.763Z,9.75
2023-05-16T07:23:04.167Z,6.75
2023-05-16T07:25:31.011Z,5.20
2023-05-16T07:27:57.670Z,7.30
2023-05-16T07:30:24.705Z,7.07
2023-05-16T07:32:51.695Z,8.25
2023-05-16T07:35:18.874Z,6.88
2023-05-16T07:37:46.262Z,9.88
2023-05-16T07:40:13.794Z,8.68
2023-05-16T07:42:40.886Z,15.65
2023-05-16T07:45:08.440Z,8.13
2023-05-16T07:47:35.846Z,5.07
2023-05-16T07:50:03.047Z,7.28
2023-05-16T07:52:30.068Z,4.97
2023-05-16T07:54:57.064Z,5.53
2023-05-16T07:57:25.329Z,6.15
2023-05-16T07:59:52.905Z,5.70
2023-05-16T08:02:20.025Z,7.53
2023-05-16T08:04:47.151Z,7.00
2023-05-16T08:07:13.872Z,6.90
2023-05-16T08:09:40.529Z,5.78
2023-05-16T08:12:08.742Z,7.30
2023-05-16T08:14:38.364Z,7.80
2023-05-16T08:17:05.458Z,6.78
2023-05-16T08:19:33.890Z,9.05
2023-05-16T08:22:01.134Z,6.95
2023-05-16T08:24:27.918Z,5.13
2023-05-16T08:26:54.837Z,4.68
2023-05-16T08:29:22.218Z,7.93
2023-05-16T08:31:49.143Z,6.43
2023-05-16T08:34:16.022Z,6.07
2023-05-16T08:36:43.109Z,7.43
2023-05-16T08:39:12.160Z,7.65
2023-05-16T08:41:39.822Z,5.40
2023-05-16T08:44:10.482Z,8.25
2023-05-16T08:46:40.946Z,4.55
2023-05-16T08:49:09.497Z,5.18
2023-05-16T08:51:37.918Z,5.40
2023-05-16T08:54:11.009Z,5.07
2023-05-16T08:56:38.694Z,4.25
2023-05-16T08:59:06.006Z,5.00
2023-05-16T09:01:33.416Z,5.85
2023-05-16T09:04:01.199Z,7.20
2023-05-16T09:06:28.319Z,7.68
2023-05-16T09:08:55.506Z,4.72
2023-05-16T09:11:22.674Z,8.98
2023-05-16T09:13:50.049Z,7.22
2023-05-16T09:16:19.840Z,4.38
2023-05-16T09:18:58.545Z,5.40
2023-05-16T09:21:31.989Z,5.18
2023-05-16T09:24:06.256Z,7.07
2023-05-16T09:26:34.998Z,8.68
2023-05-16T09:29:02.403Z,5.38
2023-05-16T09:31:37.945Z,9.15
2023-05-16T09:34:08.193Z,9.20
2023-05-16T09:36:35.435Z,6.03
2023-05-16T09:39:02.283Z,4.68
2023-05-16T09:41:29.756Z,6.30
2023-05-16T09:43:56.526Z,10.63
2023-05-16T09:46:28.284Z,5.03
2023-05-16T09:48:55.554Z,7.07
2023-05-16T09:51:26.954Z,5.18
2023-05-16T09:53:53.968Z,6.47
2023-05-16T09:56:21.679Z,8.45
2023-05-16T09:58:48.530Z,5.70
2023-05-16T10:01:15.160Z,4.05
2023-05-16T10:03:46.364Z,8.68
2023-05-16T10:06:13.987Z,7.95
2023-05-16T10:08:43.286Z,4.15
2023-05-16T10:11:11.611Z,5.57
2023-05-16T10:13:39.212Z,6.40
2023-05-16T10:16:12.590Z,8.32
2023-05-16T10:18:40.598Z,5.47
2023-05-16T10:21:15.125Z,5.35
2023-05-16T10:23:43.136Z,4.45
2023-05-16T10:26:14.156Z,3.45
2023-05-16T10:28:41.480Z,6.57
2023-05-16T10:31:09.961Z,4.35
2023-05-16T10:33:38.063Z,6.80
2023-05-16T10:36:05.687Z,7.80
2023-05-16T10:38:33.801Z,3.17
2023-05-16T10:41:00.860Z,4.00
2023-05-16T10:43:31.010Z,4.57
2023-05-16T10:46:11.637Z,7.05
2023-05-16T10:48:40.230Z,8.15
2023-05-16T10:51:32.924Z,3.58
2023-05-16T10:54:06.764Z,6.55
2023-05-16T10:56:35.161Z,7.05
2023-05-16T10:59:02.531Z,5.80
2023-05-16T11:01:32.590Z,7.32
2023-05-16T11:04:02.316Z,7.82
2023-05-16T11:06:33.313Z,5.88
2023-05-16T11:08:59.911Z,7.85
2023-05-16T11:11:47.354Z,7.43
2023-05-16T11:14:34.384Z,8.77
2023-05-16T11:17:13.791Z,5.22
2023-05-16T11:19:49.703Z,6.20
2023-05-16T11:22:19.096Z,5.22
2023-05-16T11:25:05.944Z,6.22
2023-05-16T11:27:36.203Z,5.70
2023-05-16T11:30:05.876Z,5.63
2023-05-16T11:32:38.006Z,10.27
2023-05-16T11:35:08.145Z,6.20
2023-05-16T11:37:41.816Z,6.25
2023-05-16T11:40:11.585Z,6.93
2023-05-16T11:42:44.311Z,12.95
2023-05-16T11:45:19.992Z,9.65
2023-05-16T11:47:49.281Z,9.95
2023-05-16T11:50:22.302Z,5.35
2023-05-16T11:52:57.647Z,6.57
2023-05-16T11:55:41.385Z,5.90
2023-05-16T11:58:09.899Z,6.13
2023-05-16T12:00:36.582Z,6.93
2023-05-16T12:03:05.773Z,7.03
2023-05-16T12:05:35.084Z,13.13
2023-05-16T12:08:02.880Z,6.00
2023-05-16T12:10:31.661Z,8.52
2023-05-16T12:12:58.569Z,6.90
2023-05-16T12:15:25.742Z,4.93
2023-05-16T12:17:53.088Z,6.32
2023-05-16T12:20:20.131Z,6.88
2023-05-16T12:22:47.098Z,5.32
2023-05-16T12:25:32.357Z,5.45
2023-05-16T12:28:02.013Z,6.68
2023-05-16T12:30:31.208Z,5.13
2023-05-16T12:33:09.758Z,7.05
2023-05-16T12:35:39.378Z,6.55
2023-05-16T12:38:17.261Z,6.75
2023-05-16T12:40:48.995Z,8.23
2023-05-16T12:43:16.707Z,8.85
2023-05-16T12:45:51.405Z,5.93
2023-05-16T12:48:18.589Z,9.00
2023-05-16T12:50:48.913Z,5.63
2023-05-16T12:53:18.038Z,7.85
2023-05-16T12:55:45.207Z,7.60
2023-05-16T12:58:12.692Z,7.40
2023-05-16T13:00:39.704Z,8.55
2023-05-16T13:03:07.969Z,5.13
2023-05-16T13:05:36.245Z,5.63
2023-05-16T13:08:03.371Z,4.78
2023-05-16T13:10:30.285Z,7.88
2023-05-16T13:13:00.055Z,13.48
2023-05-16T13:15:27.634Z,7.72
2023-05-16T13:17:54.921Z,6.93
2023-05-16T13:20:21.974Z,13.75
2023-05-16T13:22:48.978Z,7.57
2023-05-16T13:25:16.185Z,7.70
2023-05-16T13:27:43.060Z,13.82
2023-05-16T13:30:12.766Z,5.35
2023-05-16T13:32:39.629Z,6.93
2023-05-16T13:35:06.850Z,8.40
2023-05-16T13:37:34.131Z,6.07
2023-05-16T13:40:00.879Z,5.72
2023-05-16T13:42:27.801Z,8.88
2023-05-16T13:44:54.584Z,7.88
2023-05-16T13:47:21.485Z,6.10
2023-05-16T13:49:48.593Z,8.05
2023-05-16T13:52:15.332Z,6.95
2023-05-16T13:54:42.075Z,9.30
2023-05-16T13:57:08.823Z,11.65
2023-05-16T14:00:05.776Z,8.82
2023-05-16T14:02:26.431Z,7.93
2023-05-16T14:04:54.087Z,9.40
2023-05-16T14:07:20.904Z,10.65
2023-05-16T14:09:47.675Z,8.45
2023-05-16T14:12:14.606Z,8.85
2023-05-16T14:14:41.698Z,10.38
2023-05-16T14:17:08.511Z,9.48
2023-05-16T14:19:35.788Z,10.18
2023-05-16T14:22:02.927Z,10.35
2023-05-16T14:24:29.624Z,16.80
2023-05-16T14:26:56.348Z,11.98
2023-05-16T14:29:23.156Z,10.93
2023-05-16T14:31:50.065Z,11.43
2023-05-16T14:34:16.879Z,8.60
2023-05-16T14:36:43.838Z,14.60
2023-05-16T14:39:10.714Z,14.35
2023-05-16T14:41:37.678Z,10.27
2023-05-16T14:44:04.727Z,11.43
2023-05-16T14:46:31.553Z,13.05
2023-05-16T14:48:58.266Z,9.52
2023-05-16T14:51:24.988Z,9.27
2023-05-16T14:53:51.676Z,9.93
2023-05-16T14:56:22.248Z,8.95
2023-05-16T14:58:49.123Z,12.40
2023-05-16T15:01:16.797Z,16.13
2023-05-16T15:03:54.480Z,8.02
2023-05-16T15:06:21.856Z,11.55
2023-05-16T15:08:51.241Z,9.40
2023-05-16T15:11:17.988Z,15.25
2023-05-16T15:13:44.676Z,9.18
2023-05-16T15:16:11.485Z,8.30
2023-05-16T15:18:39.012Z,10.38
2023-05-16T15:21:06.449Z,9.07
2023-05-16T15:23:36.781Z,5.72
2023-05-16T15:26:04.429Z,7.65
2023-05-16T15:28:31.334Z,5.90
2023-05-16T15:31:00.640Z,6.50
2023-05-16T15:33:35.736Z,9.23
2023-05-16T15:36:02.498Z,6.20
2023-05-16T15:38:29.372Z,9.50
2023-05-16T15:41:13.629Z,8.32
2023-05-16T15:43:43.185Z,5.88
2023-05-16T15:46:11.328Z,7.70
2023-05-16T15:48:42.875Z,13.25
2023-05-16T15:51:09.988Z,9.00
2023-05-16T15:53:36.752Z,7.85
2023-05-16T15:56:04.209Z,7.22
2023-05-16T15:58:31.418Z,6.38
2023-05-16T16:00:58.609Z,5.47
2023-05-16T16:03:26.226Z,8.75
2023-05-16T16:05:53.668Z,11.35
2023-05-16T16:08:22.488Z,6.45
2023-05-16T16:10:49.583Z,7.90
2023-05-16T16:13:16.273Z,9.60
2023-05-16T16:15:43.583Z,6.55
2023-05-16T16:18:11.784Z,6.85
2023-05-16T16:20:38.954Z,8.93
2023-05-16T16:23:05.944Z,13.20
2023-05-16T16:25:32.815Z,9.18
2023-05-16T16:28:00.440Z,12.05
2023-05-16T16:30:27.997Z,14.35
2023-05-16T16:32:55.182Z,11.77
2023-05-16T16:35:24.623Z,8.05
2023-05-16T16:40:29.280Z,10.77
2023-05-16T16:42:56.285Z,9.82
2023-05-16T16:45:23.124Z,8.75
2023-05-16T16:47:50.111Z,8.77
2023-05-16T16:50:17.249Z,8.15
2023-05-16T16:52:44.077Z,9.32
2023-05-16T16:55:10.923Z,8.15
2023-05-16T16:57:37.873Z,8.68
2023-05-16T17:00:05.394Z,10.25
2023-05-16T17:02:32.492Z,16.17
2023-05-16T17:04:59.607Z,10.18
2023-05-16T17:07:26.658Z,12.88
2023-05-16T17:09:54.678Z,15.95
2023-05-16T17:12:22.380Z,10.13
2023-05-16T17:14:50.322Z,13.05
2023-05-16T17:17:18.708Z,10.57
2023-05-16T17:19:47.111Z,12.43
2023-05-16T17:22:14.152Z,12.73
2023-05-16T17:24:41.516Z,14.20
2023-05-16T17:27:08.691Z,10.57
2023-05-16T17:29:35.624Z,15.15
2023-05-16T17:32:02.263Z,17.23
2023-05-16T17:34:29.157Z,11.88
2023-05-16T17:36:56.057Z,11.70
2023-05-16T17:39:23.148Z,10.50
2023-05-16T17:41:50.190Z,11.02
2023-05-16T17:44:16.940Z,11.65
2023-05-16T17:46:44.416Z,10.07
2023-05-16T17:49:12.031Z,15.95
2023-05-16T17:51:49.939Z,11.48
2023-05-16T17:54:18.588Z,12.35
2023-05-16T17:56:50.516Z,10.73
2023-05-16T17:59:17.908Z,11.95
2023-05-16T18:01:46.683Z,12.75
2023-05-16T18:04:13.593Z,10.48
2023-05-16T18:06:41.064Z,13.98
2023-05-16T18:09:10.112Z,14.65
2023-05-16T18:11:38.980Z,11.93
2023-05-16T18:14:06.012Z,10.90
2023-05-16T18:16:33.025Z,18.45
2023-05-16T18:19:00.448Z,18.25
2023-05-16T18:21:28.027Z,10.90
2023-05-16T18:23:59.066Z,11.57
2023-05-16T18:26:29.742Z,12.43
2023-05-16T18:28:56.847Z,13.18
2023-05-16T18:31:23.937Z,10.52
2023-05-16T18:33:51.056Z,14.20
2023-05-16T18:36:21.002Z,13.35
2023-05-16T18:38:48.052Z,15.52
2023-05-16T18:41:14.985Z,13.40
2023-05-16T18:43:42.360Z,13.02
2023-05-16T18:46:09.318Z,13.48
2023-05-16T18:48:36.363Z,11.40
2023-05-16T18:51:03.478Z,13.68
2023-05-16T18:53:30.315Z,13.10
2023-05-16T18:56:00.471Z,15.57
2023-05-16T18:58:27.995Z,12.18
2023-05-16T19:00:55.123Z,12.07
2023-05-16T19:03:22.165Z,17.00
2023-05-16T19:05:49.408Z,12.82
2023-05-16T19:08:16.516Z,11.65
2023-05-16T19:10:45.112Z,14.32
2023-05-16T19:13:12.166Z,11.50
2023-05-16T19:15:40.044Z,14.07
2023-05-16T19:18:07.159Z,13.93
2023-05-16T19:20:35.405Z,11.10
2023-05-16T19:23:03.661Z,14.60
2023-05-16T19:25:30.788Z,10.63
2023-05-16T19:27:57.811Z,11.15
2023-05-16T19:30:25.597Z,12.52
2023-05-16T19:33:11.402Z,11.38
2023-05-16T19:35:42.807Z,10.20
2023-05-16T19:38:20.799Z,9.43
2023-05-16T19:40:54.873Z,12.18
2023-05-16T19:43:26.005Z,12.65
2023-05-16T19:45:57.167Z,11.33
2023-05-16T19:48:35.849Z,16.10
2023-05-16T19:51:04.141Z,10.98
2023-05-16T19:53:36.121Z,12.27
2023-05-16T19:56:04.912Z,9.95
2023-05-16T19:58:34.039Z,11.90
2023-05-16T20:01:04.588Z,12.68
2023-05-16T20:03:38.416Z,9.98
2023-05-16T20:06:06.867Z,11.70
2023-05-16T20:08:33.922Z,10.85
2023-05-16T20:11:00.727Z,9.40
2023-05-16T20:13:30.754Z,14.73
2023-05-16T20:15:58.047Z,11.48
2023-05-16T20:18:26.295Z,9.57
2023-05-16T20:20:53.414Z,13.65
2023-05-16T20:23:20.262Z,18.08
2023-05-16T20:25:47.909Z,13.35
2023-05-16T20:28:17.754Z,12.60
2023-05-16T20:30:45.099Z,14.77
2023-05-16T20:33:12.523Z,10.95
2023-05-16T20:35:39.507Z,14.15
2023-05-16T20:38:06.438Z,14.10
2023-05-16T20:40:33.050Z,15.38
2023-05-16T20:42:59.920Z,17.85
2023-05-16T20:45:28.649Z,16.15
2023-05-16T20:47:55.868Z,14.45
2023-05-16T20:50:22.663Z,15.73
2023-05-16T20:52:49.462Z,13.93
2023-05-16T20:55:16.232Z,12.48
2023-05-16T20:57:43.909Z,10.63
2023-05-16T21:00:12.490Z,13.23
2023-05-16T21:02:39.240Z,15.15
2023-05-16T21:05:23.318Z,11.73
2023-05-16T21:07:51.974Z,13.75
2023-05-16T21:10:18.933Z,14.88
2023-05-16T21:12:51.525Z,17.42
2023-05-16T21:15:19.110Z,17.85
2023-05-16T21:17:46.829Z,13.85
2023-05-16T21:20:13.686Z,16.58
2023-05-16T21:22:41.143Z,15.93
2023-05-16T21:25:08.288Z,22.65
2023-05-16T21:27:35.006Z,16.90
2023-05-16T21:30:01.918Z,16.33
2023-05-16T21:32:32.611Z,19.58
2023-05-16T21:35:04.322Z,20.95
2023-05-16T21:37:31.026Z,13.25
2023-05-16T21:39:57.831Z,22.92
2023-05-16T21:42:24.594Z,17.27
2023-05-16T21:44:51.590Z,17.77
2023-05-16T21:47:18.279Z,19.13
2023-05-16T21:49:45.057Z,16.75
2023-05-16T21:52:11.833Z,16.77
2023-05-16T21:54:38.518Z,15.30
2023-05-16T21:57:06.931Z,17.13
2023-05-16T21:59:33.661Z,17.38
2023-05-16T22:02:00.416Z,16.63
2023-05-16T22:04:27.260Z,21.13
2023-05-16T22:06:54.213Z,18.40
2023-05-16T22:09:20.973Z,17.73
2023-05-16T22:11:47.930Z,19.65
2023-05-16T22:14:14.935Z,21.13
2023-05-16T22:16:41.645Z,19.05
2023-05-16T22:19:09.081Z,17.88
2023-05-16T22:21:36.160Z,19.90
2023-05-16T22:24:03.323Z,17.00
2023-05-16T22:26:30.076Z,21.70
2023-05-16T22:28:56.842Z,15.93
2023-05-16T22:31:23.712Z,17.38
2023-05-16T22:33:50.563Z,19.13
2023-05-16T22:36:17.586Z,18.05
2023-05-16T22:38:44.594Z,19.88
2023-05-16T22:41:11.368Z,19.25
2023-05-16T22:43:39.537Z,17.95
2023-05-16T22:46:06.300Z,21.95
2023-05-16T22:48:33.321Z,25.48
2023-05-16T22:51:00.106Z,21.38
2023-05-16T22:53:27.295Z,16.02
2023-05-16T22:55:57.359Z,22.00
2023-05-16T22:58:25.026Z,19.65
2023-05-16T23:00:52.045Z,21.45
2023-05-16T23:03:19.129Z,18.33
2023-05-16T23:05:46.544Z,17.00
2023-05-16T23:08:13.359Z,17.70
2023-05-16T23:10:40.593Z,21.30
2023-05-16T23:13:07.523Z,20.45
2023-05-16T23:15:34.329Z,20.27
2023-05-16T23:18:01.688Z,20.35
2023-05-16T23:20:32.133Z,18.40
2023-05-16T23:22:58.990Z,16.40
2023-05-16T23:25:26.522Z,17.30
2023-05-16T23:27:57.717Z,19.38
2023-05-16T23:30:25.352Z,15.73
2023-05-16T23:32:52.720Z,15.85
2023-05-16T23:35:19.661Z,17.50
2023-05-16T23:37:46.671Z,16.25
2023-05-16T23:40:13.456Z,20.38
2023-05-16T23:42:42.983Z,16.50
2023-05-16T23:45:10.449Z,16.55
2023-05-16T23:47:37.231Z,14.98
2023-05-16T23:50:04.222Z,14.80
2023-05-16T23:52:31.009Z,19.00
2023-05-16T23:54:58.231Z,16.05
2023-05-16T23:57:24.965Z,18.63
2023-05-16T23:59:51.709Z,14.95
